Time;durP1;ratioP1;P1;durP2;ratioP2;P2;SDS_P1;SDS_P2;PMS_P1;PMS_P2;Temp;Humidity;BMP_temperature;BMP_pressure;BME280_temperature;BME280_humidity;BME280_pressure;Samples;Min_cycle;Max_cycle;Signal;HPM_P1;HPM_P2
2022/01/08 00:02:21;;;;;;;7.93;5.40;;;;;;;3.74;79.52;98194.81;2630003;54;20059;-70
2022/01/08 00:04:51;;;;;;;5.03;3.50;;;;;;;3.71;79.22;98193.38;2629375;47;20034;-70
2022/01/08 00:07:20;;;;;;;13.45;4.57;;;;;;;3.71;79.29;98174.22;2629543;47;20051;-70
2022/01/08 00:09:52;;;;;;;8.90;3.92;;;;;;;3.72;79.79;98184.53;2629984;54;20030;-70
2022/01/08 00:12:23;;;;;;;7.00;3.67;;;;;;;3.72;79.37;98170.66;2629368;54;20030;-70
2022/01/08 00:14:52;;;;;;;5.95;3.83;;;;;;;3.79;79.59;98166.38;2627547;54;20568;-71
2022/01/08 00:17:23;;;;;;;5.32;3.30;;;;;;;3.72;79.30;98153.16;2627296;54;20035;-71
2022/01/08 00:19:53;;;;;;;5.95;3.95;;;;;;;3.70;79.20;98152.50;2624441;54;20034;-71
2022/01/08 00:22:23;;;;;;;6.03;3.65;;;;;;;3.68;79.50;98145.81;2619592;54;20034;-71
2022/01/08 00:24:55;;;;;;;4.15;2.60;;;;;;;3.67;79.10;98128.47;2620232;47;20053;-71
2022/01/08 00:27:25;;;;;;;7.97;4.03;;;;;;;3.72;79.27;98132.25;2620936;39;20425;-71
2022/01/08 00:29:55;;;;;;;7.25;4.32;;;;;;;3.78;79.17;98133.38;2620774;39;20382;-71
2022/01/08 00:32:26;;;;;;;5.70;3.40;;;;;;;3.69;79.21;98124.72;2619683;47;20034;-71
2022/01/08 00:34:56;;;;;;;12.27;6.18;;;;;;;3.65;79.07;98118.19;2620341;47;20035;-69
2022/01/08 00:37:25;;;;;;;8.32;4.72;;;;;;;3.69;79.03;98122.13;2620774;54;20031;-69
2022/01/08 00:39:57;;;;;;;7.20;3.10;;;;;;;3.61;78.22;98113.47;2618995;47;20043;-70
2022/01/08 00:42:27;;;;;;;6.00;4.40;;;;;;;3.54;78.79;98110.69;2620351;54;20030;-70
2022/01/08 00:44:56;;;;;;;6.03;4.00;;;;;;;3.56;78.88;98100.09;2620087;46;20082;-70
2022/01/08 00:47:26;;;;;;;6.13;3.30;;;;;;;3.47;78.24;98088.81;2620251;46;20046;-70
2022/01/08 00:49:56;;;;;;;8.15;4.72;;;;;;;3.39;79.28;98100.09;2620833;54;20050;-70
2022/01/08 00:52:25;;;;;;;11.18;6.20;;;;;;;3.36;79.23;98092.59;2620213;54;20035;-70
2022/01/08 00:54:58;;;;;;;11.40;7.55;;;;;;;3.38;79.18;98087.19;2620623;54;20022;-70
2022/01/08 00:57:27;;;;;;;8.38;4.97;;;;;;;3.40;79.08;98087.84;2620586;54;20033;-70
2022/01/08 00:59:57;;;;;;;3.92;3.50;;;;;;;3.36;78.96;98084.75;2620301;54;20038;-69
2022/01/08 01:02:27;;;;;;;4.40;4.00;;;;;;;3.35;79.20;98085.72;2618838;47;20042;-69
2022/01/08 01:04:56;;;;;;;4.15;3.45;;;;;;;3.33;78.55;98074.63;2620322;47;20040;-70
2022/01/08 01:07:26;;;;;;;3.47;2.78;;;;;;;3.23;78.80;98085.25;2620295;47;20027;-71
2022/01/08 01:09:58;;;;;;;3.13;2.80;;;;;;;3.16;78.51;98078.22;2620448;54;20038;-71
2022/01/08 01:12:28;;;;;;;3.92;2.78;;;;;;;3.11;78.37;98070.06;2621005;54;20034;-70
2022/01/08 01:15:11;;;;;;;3.20;2.55;;;;;;;3.06;78.63;98060.09;2619784;47;20572;-70
2022/01/08 01:17:42;;;;;;;3.25;2.80;;;;;;;3.05;78.69;98053.22;2619824;51;20599;-70
2022/01/08 01:20:14;;;;;;;2.78;2.20;;;;;;;3.01;78.46;98056.34;2619463;54;20094;-70
2022/01/08 01:22:52;;;;;;;2.50;2.30;;;;;;;3.04;78.90;98059.44;2618136;54;20171;-69
2022/01/08 01:25:30;;;;;;;3.63;2.67;;;;;;;3.06;78.53;98052.28;2617054;51;20019;-69
2022/01/08 01:28:12;;;;;;;4.03;2.28;;;;;;;3.03;78.78;98051.78;2616695;54;20042;-69
2022/01/08 01:41:43;;;;;;;1.60;1.50;;;;;;;2.98;78.50;98044.44;2623205;47;20026;-69
2022/01/08 01:47:03;;;;;;;1.73;1.30;;;;;;;2.96;78.41;98030.72;2623875;39;20203;-69
2022/01/08 01:49:34;;;;;;;1.65;1.35;;;;;;;2.91;78.36;98035.63;2621468;54;20135;-69
2022/01/08 01:52:06;;;;;;;2.25;1.25;;;;;;;2.84;78.85;98039.84;2619516;54;20043;-69
2022/01/08 01:54:36;;;;;;;1.50;1.40;;;;;;;2.79;78.76;98031.69;2619346;54;20033;-69
2022/01/08 01:57:12;;;;;;;2.03;1.70;;;;;;;2.86;79.35;98036.09;2619279;54;20039;-69
2022/01/08 01:59:43;;;;;;;1.30;1.20;;;;;;;2.92;78.75;98038.06;2618393;54;20042;-69
2022/01/08 02:02:13;;;;;;;1.25;1.15;;;;;;;2.95;78.58;98032.50;2617948;54;20042;-69
2022/01/08 02:04:42;;;;;;;2.28;1.35;;;;;;;2.98;78.56;98037.41;2617668;54;20034;-70
2022/01/08 02:07:13;;;;;;;1.30;1.20;;;;;;;2.95;78.64;98034.31;2617849;54;20053;-69
2022/01/08 02:09:42;;;;;;;1.23;1.10;;;;;;;2.92;78.66;98032.03;2617592;47;20081;-69
2022/01/08 02:12:17;;;;;;;1.52;1.13;;;;;;;2.91;78.98;98036.44;2617554;51;20034;-69
2022/01/08 02:14:47;;;;;;;1.40;1.30;;;;;;;2.81;78.58;98027.13;2617649;54;20050;-69
2022/01/08 02:17:17;;;;;;;1.17;1.08;;;;;;;2.72;78.77;98027.09;2617958;54;20058;-69
2022/01/08 02:19:47;;;;;;;2.08;1.20;;;;;;;2.71;78.91;98038.53;2617546;47;20030;-69
2022/01/08 02:22:20;;;;;;;1.30;1.10;;;;;;;2.66;79.00;98048.63;2618153;54;20041;-69
2022/01/08 02:24:50;;;;;;;1.40;1.30;;;;;;;2.51;78.88;98046.81;2618117;54;20058;-69
2022/01/08 02:27:21;;;;;;;1.73;1.00;;;;;;;2.38;79.28;98042.06;2617892;54;20034;-69
2022/01/08 02:29:51;;;;;;;1.80;1.45;;;;;;;2.36;79.74;98044.81;2617279;47;20039;-69
2022/01/08 02:32:25;;;;;;;1.50;1.30;;;;;;;2.38;80.03;98049.88;2617977;39;20490;-70
2022/01/08 02:34:55;;;;;;;2.10;1.17;;;;;;;2.34;79.81;98048.56;2617461;54;20026;-70
2022/01/08 02:37:30;;;;;;;1.42;1.33;;;;;;;2.35;79.80;98042.38;2617784;54;20069;-71
2022/01/08 02:40:02;;;;;;;1.50;1.38;;;;;;;2.33;79.96;98046.94;2617884;54;20035;-69
2022/01/08 02:42:38;;;;;;;1.35;1.20;;;;;;;2.31;79.84;98054.91;2617948;54;20038;-70
2022/01/08 02:45:09;;;;;;;1.33;1.13;;;;;;;2.31;79.92;98064.53;2618014;54;20070;-69
2022/01/08 02:47:39;;;;;;;1.20;1.10;;;;;;;2.33;79.77;98070.41;2617755;54;20031;-69
2022/01/08 02:50:09;;;;;;;1.30;1.20;;;;;;;2.29;79.69;98067.31;2617161;54;20026;-69
2022/01/08 02:52:45;;;;;;;1.52;1.42;;;;;;;2.27;79.75;98079.66;2617926;54;20034;-69
2022/01/08 02:55:17;;;;;;;2.10;1.30;;;;;;;2.22;79.57;98081.94;2618135;54;20030;-69
2022/01/08 02:57:47;;;;;;;4.00;1.20;;;;;;;2.12;79.91;98082.06;2617896;39;20417;-69
2022/01/08 03:00:20;;;;;;;1.02;1.00;;;;;;;2.07;80.38;98075.69;2617862;54;20035;-69
2022/01/08 03:02:51;;;;;;;1.08;1.05;;;;;;;2.08;80.22;98078.16;2617237;47;20062;-69
2022/01/08 03:05:21;;;;;;;1.40;1.13;;;;;;;2.13;80.41;98073.28;2617517;47;20033;-69
2022/01/08 03:07:53;;;;;;;1.55;1.10;;;;;;;2.11;80.35;98090.03;2618281;47;20026;-69
2022/01/08 03:10:23;;;;;;;1.20;1.10;;;;;;;2.08;80.21;98087.72;2619023;39;20438;-69
2022/01/08 03:12:53;;;;;;;1.10;1.00;;;;;;;2.02;80.63;98090.97;2618914;39;20557;-69
2022/01/08 03:15:26;;;;;;;1.63;1.13;;;;;;;2.03;80.36;98090.81;2618637;54;20035;-69
2022/01/08 03:17:56;;;;;;;1.67;1.33;;;;;;;2.06;80.65;98105.34;2618499;54;20074;-69
2022/01/08 03:20:25;;;;;;;1.63;1.40;;;;;;;2.13;80.68;98108.97;2618228;47;20033;-69
2022/01/08 03:23:02;;;;;;;1.45;1.27;;;;;;;2.17;80.34;98108.50;2619002;54;20065;-69
2022/01/08 03:25:33;;;;;;;1.10;1.00;;;;;;;2.19;80.87;98127.38;2618857;39;20391;-69
2022/01/08 03:28:02;;;;;;;1.48;1.20;;;;;;;2.15;80.62;98136.50;2618648;31;20552;-69
2022/01/08 03:30:34;;;;;;;1.27;1.17;;;;;;;2.14;80.32;98136.66;2619416;31;20475;-67
2022/01/08 03:33:03;;;;;;;1.40;1.30;;;;;;;2.16;80.40;98134.69;2618072;54;20031;-68
2022/01/08 03:35:33;;;;;;;3.15;1.45;;;;;;;2.06;80.56;98137.44;2618721;54;20053;-69
2022/01/08 03:38:05;;;;;;;1.10;1.10;;;;;;;2.06;80.54;98139.22;2617977;48;20050;-69
2022/01/08 03:40:35;;;;;;;1.15;1.10;;;;;;;2.06;80.88;98154.88;2618581;54;20522;-70
2022/01/08 03:43:04;;;;;;;1.20;1.10;;;;;;;2.15;80.70;98165.19;2618551;54;20038;-68
2022/01/08 03:45:34;;;;;;;0.80;0.80;;;;;;;2.07;80.69;98166.94;2618110;54;20062;-68
2022/01/08 03:48:27;;;;;;;1.13;1.02;;;;;;;2.07;80.58;98183.38;2618474;54;20557;-69
2022/01/08 03:50:57;;;;;;;0.82;0.82;;;;;;;2.08;80.26;98179.81;2618646;54;20026;-69
2022/01/08 03:53:30;;;;;;;0.60;0.60;;;;;;;2.12;80.33;98188.97;2618391;51;20030;-68
2022/01/08 03:55:59;;;;;;;0.50;0.50;;;;;;;2.10;79.62;98205.72;2618629;54;20564;-69
2022/01/08 03:58:29;;;;;;;0.40;0.40;;;;;;;2.05;80.23;98226.25;2624414;54;20022;-69
2022/01/08 04:01:00;;;;;;;0.50;0.50;;;;;;;2.02;80.38;98229.16;2625724;54;20094;-69
2022/01/08 04:03:30;;;;;;;0.45;0.40;;;;;;;2.01;80.37;98236.16;2627109;39;20657;-69
2022/01/08 04:06:00;;;;;;;0.50;0.50;;;;;;;1.99;80.50;98249.31;2623982;39;20421;-69
2022/01/08 04:08:32;;;;;;;0.40;0.40;;;;;;;2.01;80.75;98261.41;2624254;47;20041;-69
2022/01/08 04:11:02;;;;;;;0.60;0.50;;;;;;;2.07;80.51;98261.59;2625458;47;20058;-69
2022/01/08 04:13:35;;;;;;;0.60;0.60;;;;;;;2.08;80.50;98275.44;2624198;54;20111;-70
2022/01/08 04:16:10;;;;;;;1.75;0.50;;;;;;;2.03;80.01;98278.53;2624778;54;20585;-70
2022/01/08 04:18:40;;;;;;;0.47;0.47;;;;;;;2.01;80.22;98290.91;2622118;54;20034;-70
2022/01/08 04:21:39;;;;;;;0.93;0.60;;;;;;;2.00;80.48;98299.69;2619080;47;20047;-70
2022/01/08 04:24:09;;;;;;;0.60;0.60;;;;;;;2.05;80.11;98309.69;2619276;54;20043;-70
2022/01/08 04:26:39;;;;;;;1.92;0.77;;;;;;;2.04;79.79;98310.63;2618632;54;20042;-70
2022/01/08 04:29:10;;;;;;;0.65;0.63;;;;;;;2.01;79.91;98316.16;2618466;47;20034;-70
2022/01/08 04:31:40;;;;;;;0.68;0.68;;;;;;;2.03;79.94;98327.25;2619608;39;20469;-70
2022/01/08 04:34:09;;;;;;;0.90;0.50;;;;;;;2.02;79.38;98336.03;2619307;54;20029;-69
2022/01/08 04:36:39;;;;;;;0.75;0.70;;;;;;;1.93;79.66;98340.38;2619732;39;20430;-68
2022/01/08 04:39:11;;;;;;;1.67;0.77;;;;;;;1.90;79.15;98359.72;2619610;54;20038;-68
2022/01/08 04:41:41;;;;;;;2.10;0.70;;;;;;;1.90;79.54;98369.31;2619442;54;20046;-68
2022/01/08 04:44:11;;;;;;;1.33;0.70;;;;;;;1.93;79.39;98382.88;2619323;47;20034;-68
2022/01/08 04:46:41;;;;;;;1.95;0.95;;;;;;;1.95;79.11;98390.56;2619377;54;20038;-68
2022/01/08 04:49:11;;;;;;;0.88;0.75;;;;;;;1.95;79.29;98387.94;2620009;39;20454;-68
2022/01/08 04:51:41;;;;;;;1.05;0.60;;;;;;;1.99;79.58;98397.09;2618973;47;20046;-68
2022/01/08 04:54:13;;;;;;;0.88;0.70;;;;;;;2.03;79.37;98408.88;2620224;54;20572;-72
2022/01/08 04:56:43;;;;;;;2.05;1.02;;;;;;;2.06;78.99;98410.38;2621636;39;20387;-72
2022/01/08 04:59:12;;;;;;;1.75;0.65;;;;;;;2.10;79.44;98416.94;2621414;54;20031;-71
2022/01/08 05:01:42;;;;;;;1.60;0.80;;;;;;;2.12;79.08;98415.00;2620843;54;20031;-69
2022/01/08 05:04:11;;;;;;;1.05;0.60;;;;;;;2.13;78.88;98425.28;2620967;47;20034;-70
2022/01/08 05:06:44;;;;;;;2.75;0.90;;;;;;;2.18;79.27;98430.06;2621424;54;20035;-70
2022/01/08 05:09:17;;;;;;;3.08;1.33;;;;;;;2.17;78.79;98438.84;2622056;31;20538;-70
2022/01/08 05:11:46;;;;;;;2.28;0.90;;;;;;;2.20;79.10;98441.16;2620413;47;20023;-70
2022/01/08 05:14:16;;;;;;;1.40;0.70;;;;;;;2.26;79.38;98451.00;2620832;47;20165;-70
2022/01/08 05:16:46;;;;;;;3.65;0.80;;;;;;;2.21;79.28;98456.66;2621117;54;20019;-68
2022/01/08 05:19:24;;;;;;;1.73;0.60;;;;;;;2.22;79.21;98460.09;2620211;39;20430;-67
2022/01/08 05:21:57;;;;;;;2.10;0.73;;;;;;;2.16;79.52;98466.72;2618542;54;20046;-67
2022/01/08 05:24:30;;;;;;;2.08;0.73;;;;;;;2.16;79.28;98471.94;2619225;54;20058;-67
2022/01/08 07:55:29;;;;;;;6.78;3.67;;;;;;;1.58;76.64;98724.16;2580391;46;20062;-68
2022/01/08 07:57:58;;;;;;;9.20;2.80;;;;;;;1.60;76.81;98732.66;2618141;54;20030;-69
2022/01/08 08:00:28;;;;;;;10.00;3.53;;;;;;;1.65;76.44;98735.66;2619292;54;20035;-69
2022/01/08 08:02:58;;;;;;;8.73;3.85;;;;;;;1.70;76.64;98734.28;2619042;54;20030;-69
2022/01/08 08:05:31;;;;;;;7.32;4.00;;;;;;;1.81;76.67;98743.75;2618571;54;20030;-69
2022/01/08 08:08:01;;;;;;;8.40;4.23;;;;;;;1.88;76.99;98738.81;2618186;54;20073;-69
2022/01/08 08:10:33;;;;;;;7.00;4.50;;;;;;;1.99;77.01;98744.69;2619757;47;20038;-65
2022/01/08 08:13:03;;;;;;;7.28;4.38;;;;;;;2.05;76.49;98745.09;2623472;54;20038;-65
2022/01/08 08:15:33;;;;;;;8.90;3.35;;;;;;;2.11;76.47;98740.13;2622871;54;20046;-65
2022/01/08 08:18:02;;;;;;;8.60;3.90;;;;;;;2.10;76.23;98743.72;2622860;54;20034;-67
2022/01/08 08:20:32;;;;;;;9.48;3.85;;;;;;;2.16;76.14;98753.59;2622604;54;20026;-65
2022/01/08 08:23:02;;;;;;;8.13;4.03;;;;;;;2.15;75.95;98756.34;2622805;54;20035;-66
2022/01/08 08:25:34;;;;;;;8.80;4.13;;;;;;;2.17;75.76;98757.03;2622201;54;20046;-66
2022/01/08 08:28:05;;;;;;;9.90;3.65;;;;;;;2.18;75.99;98754.28;2621342;54;20029;-66
2022/01/08 08:30:35;;;;;;;8.85;3.88;;;;;;;2.17;76.07;98759.63;2620566;54;20041;-64
2022/01/08 08:33:07;;;;;;;13.77;4.82;;;;;;;2.18;75.79;98753.44;2619501;54;20038;-65
2022/01/08 08:35:37;;;;;;;7.70;4.20;;;;;;;2.22;75.93;98762.63;2619412;54;20027;-64
2022/01/08 08:38:06;;;;;;;10.73;4.47;;;;;;;2.20;75.62;98760.19;2620605;54;20033;-65
2022/01/08 08:40:39;;;;;;;9.10;4.30;;;;;;;2.28;75.49;98759.44;2621931;39;20410;-65
2022/01/08 08:43:09;;;;;;;9.30;4.43;;;;;;;2.26;75.50;98758.78;2621384;47;20034;-65
2022/01/08 08:45:38;;;;;;;11.18;5.10;;;;;;;2.28;75.78;98759.44;2622313;54;20038;-64
2022/01/08 08:48:08;;;;;;;7.85;4.53;;;;;;;2.29;75.31;98763.72;2620215;47;20062;-65
2022/01/08 08:50:37;;;;;;;11.10;5.10;;;;;;;2.32;75.63;98762.59;2618613;54;20034;-65
2022/01/08 08:53:08;;;;;;;7.75;5.07;;;;;;;2.36;75.88;98762.19;2617995;47;20038;-64
2022/01/08 08:55:40;;;;;;;8.05;4.13;;;;;;;2.36;75.75;98766.56;2618525;54;20034;-64
2022/01/08 08:58:10;;;;;;;12.00;5.00;;;;;;;2.33;75.70;98775.53;2618179;54;20795;-64
2022/01/08 09:00:39;;;;;;;13.13;5.38;;;;;;;2.28;75.50;98775.09;2617568;52;20595;-65
2022/01/08 09:03:09;;;;;;;11.98;5.78;;;;;;;2.32;76.01;98779.06;2620295;54;20546;-65
2022/01/08 09:05:39;;;;;;;9.80;5.57;;;;;;;2.37;76.00;98776.91;2620600;54;20083;-65
2022/01/08 09:08:09;;;;;;;10.15;5.68;;;;;;;2.46;76.00;98783.03;2621286;54;20033;-65
2022/01/08 09:10:41;;;;;;;10.45;5.50;;;;;;;2.48;76.04;98787.13;2619179;54;20541;-65
2022/01/08 09:13:11;;;;;;;9.77;5.70;;;;;;;2.63;75.50;98789.31;2617806;47;20042;-64
2022/01/08 09:15:42;;;;;;;9.20;5.30;;;;;;;2.69;75.25;98784.34;2618578;54;20042;-64
2022/01/08 09:18:12;;;;;;;13.82;5.30;;;;;;;2.70;74.84;98778.16;2618309;54;20030;-65
2022/01/08 09:20:42;;;;;;;10.27;5.07;;;;;;;2.74;74.79;98778.69;2618807;39;20457;-63
2022/01/08 09:23:11;;;;;;;10.05;4.90;;;;;;;2.81;74.71;98786.75;2618262;54;20057;-65
2022/01/08 09:25:44;;;;;;;13.35;5.20;;;;;;;2.89;74.97;98782.47;2618318;54;20035;-66
2022/01/08 09:28:13;;;;;;;9.68;5.00;;;;;;;2.91;74.83;98779.72;2619067;39;20417;-66
2022/01/08 09:30:43;;;;;;;11.77;4.78;;;;;;;2.93;74.48;98783.00;2618482;54;20038;-66
2022/01/08 09:33:14;;;;;;;12.80;4.78;;;;;;;2.92;74.58;98790.00;2617654;54;20110;-65
2022/01/08 09:35:43;;;;;;;8.80;4.82;;;;;;;2.92;74.24;98782.19;2617896;54;20071;-65
2022/01/08 09:38:13;;;;;;;14.27;6.88;;;;;;;2.94;74.02;98787.28;2619321;54;20572;-65
2022/01/08 09:40:45;;;;;;;10.93;4.95;;;;;;;2.91;74.02;98777.94;2619103;54;20055;-65
2022/01/08 09:43:15;;;;;;;10.15;4.25;;;;;;;2.94;74.02;98772.44;2620440;54;20035;-64
2022/01/08 09:45:46;;;;;;;10.63;5.70;;;;;;;2.94;73.91;98776.84;2621940;39;20206;-66
2022/01/08 09:48:15;;;;;;;9.40;5.00;;;;;;;2.97;74.06;98774.72;2621128;54;20042;-66
2022/01/08 09:50:46;;;;;;;10.07;4.97;;;;;;;2.96;74.32;98780.09;2621304;54;20570;-63
2022/01/08 09:53:16;;;;;;;8.25;4.63;;;;;;;2.93;74.67;98781.22;2622254;54;20101;-65
2022/01/08 09:55:48;;;;;;;64.60;34.38;;;;;;;2.95;74.65;98774.06;2621721;54;20050;-64
2022/01/08 09:58:18;;;;;;;10.40;4.78;;;;;;;3.02;74.29;98783.91;2621039;54;20069;-65
2022/01/08 10:00:48;;;;;;;9.50;4.53;;;;;;;3.07;74.22;98782.53;2621382;54;20038;-64
2022/01/08 10:03:21;;;;;;;9.02;3.83;;;;;;;3.09;74.21;98779.75;2620729;54;20050;-64
2022/01/08 10:05:54;;;;;;;10.60;4.20;;;;;;;3.10;74.61;98776.19;2621178;47;20026;-63
2022/01/08 10:08:45;;;;;;;9.50;4.68;;;;;;;3.11;73.94;98772.63;2620616;47;20302;-66
2022/01/08 10:11:17;;;;;;;6.65;3.63;;;;;;;3.06;74.16;98772.22;2620756;54;20032;-64
2022/01/08 10:13:51;;;;;;;7.28;3.85;;;;;;;3.07;74.27;98761.63;2621797;54;20031;-65
2022/01/08 10:19:05;;;;;;;11.23;4.60;;;;;;;3.00;74.23;98764.97;2620307;54;20038;-64
2022/01/08 10:21:37;;;;;;;10.52;4.88;;;;;;;3.03;74.11;98762.09;2618303;46;20041;-64
2022/01/08 10:24:08;;;;;;;8.85;4.30;;;;;;;3.11;73.92;98762.19;2619387;54;20045;-65
2022/01/08 10:26:43;;;;;;;10.32;5.38;;;;;;;3.12;74.17;98754.19;2618878;54;20038;-66
2022/01/08 10:29:14;;;;;;;6.18;4.35;;;;;;;3.19;73.84;98751.81;2618168;54;20034;-64
2022/01/08 10:31:47;;;;;;;7.03;4.20;;;;;;;3.23;73.43;98755.78;2618058;54;20038;-65
2022/01/08 10:34:21;;;;;;;7.55;3.97;;;;;;;3.12;73.56;98745.53;2618552;54;20545;-66
2022/01/08 10:37:02;;;;;;;19.40;8.30;;;;;;;3.15;73.49;98742.63;2619571;54;20624;-66
2022/01/08 10:39:36;;;;;;;17.38;8.13;;;;;;;3.21;73.55;98755.91;2618214;54;20126;-66
2022/01/08 10:42:12;;;;;;;;;;;;;;;3.21;72.86;98749.88;2618619;54;20030;-66
2022/01/08 10:44:43;;;;;;;8.75;4.38;;;;;;;3.30;73.05;98750.78;2618372;54;20030;-65
2022/01/08 10:47:16;;;;;;;8.48;4.03;;;;;;;3.36;72.83;98748.41;2618027;54;20045;-65
2022/01/08 10:49:48;;;;;;;8.05;4.20;;;;;;;3.32;73.08;98743.63;2618339;54;20034;-65
2022/01/08 10:52:19;;;;;;;10.50;4.05;;;;;;;3.40;73.28;98739.28;2618310;54;20085;-66
2022/01/08 10:54:50;;;;;;;6.90;3.65;;;;;;;3.39;72.74;98736.84;2618686;54;20038;-65
2022/01/08 10:57:23;;;;;;;6.85;3.50;;;;;;;3.50;72.59;98730.56;2618431;54;20027;-66
2022/01/08 10:59:58;;;;;;;8.38;3.80;;;;;;;3.57;72.57;98732.44;2617820;54;20113;-66
2022/01/08 11:02:29;;;;;;;8.70;3.40;;;;;;;3.66;72.35;98722.84;2619049;31;20545;-64
2022/01/08 11:05:06;;;;;;;9.30;4.13;;;;;;;3.72;72.10;98727.50;2618806;54;20026;-65
2022/01/08 11:07:39;;;;;;;7.28;4.00;;;;;;;3.92;72.37;98717.69;2618135;54;20055;-66
2022/01/08 11:10:16;;;;;;;6.32;3.53;;;;;;;3.85;71.49;98703.56;2618429;54;20057;-66
2022/01/08 11:12:49;;;;;;;12.70;5.25;;;;;;;3.91;71.88;98698.53;2617968;54;20035;-64
2022/01/08 11:15:36;;;;;;;8.88;3.40;;;;;;;3.93;71.23;98685.31;2618292;54;20027;-65
2022/01/08 11:18:06;;;;;;;7.47;3.72;;;;;;;3.97;71.36;98681.44;2618183;54;20038;-65
2022/01/08 11:20:57;;;;;;;10.48;3.75;;;;;;;3.93;71.77;98680.09;2618787;31;20507;-65
2022/01/08 11:23:30;;;;;;;10.65;4.45;;;;;;;3.99;71.70;98674.25;2618391;54;20085;-65
2022/01/08 11:26:01;;;;;;;7.22;4.00;;;;;;;4.00;71.28;98673.28;2619039;54;20030;-66
2022/01/08 11:28:38;;;;;;;6.72;3.60;;;;;;;4.09;71.18;98666.31;2619052;54;20035;-66
2022/01/08 11:31:12;;;;;;;6.03;3.67;;;;;;;4.22;71.68;98658.84;2618410;54;20073;-66
2022/01/08 11:33:45;;;;;;;9.70;4.60;;;;;;;4.31;71.49;98644.81;2618991;54;20074;-66
2022/01/08 11:36:15;;;;;;;9.80;3.80;;;;;;;4.25;70.42;98652.50;2618712;54;20065;-66
2022/01/08 11:38:46;;;;;;;4.85;3.63;;;;;;;4.17;71.04;98643.63;2618371;47;20035;-66
2022/01/08 11:41:22;;;;;;;8.30;3.92;;;;;;;4.17;71.34;98643.63;2618877;54;20038;-66
2022/01/08 11:43:57;;;;;;;7.63;3.78;;;;;;;4.18;70.96;98636.59;2618909;54;20582;-65
2022/01/08 11:46:27;;;;;;;5.50;4.22;;;;;;;4.22;71.46;98627.44;2618297;47;20077;-67
2022/01/08 11:49:16;;;;;;;8.30;4.18;;;;;;;4.15;70.95;98631.66;2619556;54;20038;-67
2022/01/08 11:52:21;;;;;;;8.32;3.40;;;;;;;3.94;71.03;98625.00;2618862;47;20022;-65
2022/01/08 11:54:52;;;;;;;5.80;3.45;;;;;;;3.81;71.40;98619.38;2618390;47;20022;-65
2022/01/08 11:57:24;;;;;;;6.80;3.40;;;;;;;3.75;71.85;98601.69;2618212;54;20019;-66
2022/01/08 11:59:59;;;;;;;3.90;3.50;;;;;;;3.86;72.14;98605.84;2619010;54;20030;-66
2022/01/08 12:02:44;;;;;;;5.97;3.67;;;;;;;3.85;71.98;98588.50;2618461;54;20029;-64
2022/01/08 12:05:15;;;;;;;6.30;3.90;;;;;;;3.87;72.31;98583.94;2618719;54;20031;-66
2022/01/08 12:07:50;;;;;;;5.15;3.42;;;;;;;3.79;71.93;98583.88;2619266;54;20053;-65
2022/01/08 12:10:23;;;;;;;;;;;;;;;3.71;72.17;98582.03;2619262;54;20061;-66
2022/01/08 12:12:57;;;;;;;5.77;3.33;;;;;;;3.68;72.33;98585.81;2620003;54;19946;-68
2022/01/08 12:15:52;;;;;;;9.77;5.97;;;;;;;3.70;72.55;98583.03;2619030;54;20042;-66
2022/01/08 12:18:27;;;;;;;8.38;4.35;;;;;;;3.74;72.59;98568.66;2619236;54;20287;-66
2022/01/08 12:21:00;;;;;;;5.97;3.50;;;;;;;3.71;72.76;98571.59;2619405;54;20579;-66
2022/01/08 12:23:40;;;;;;;16.85;7.55;;;;;;;3.76;72.46;98569.34;2618874;54;20039;-66
2022/01/08 12:26:41;;;;;;;8.98;4.30;;;;;;;3.80;72.27;98559.41;2618646;54;20030;-66
2022/01/08 12:29:10;;;;;;;6.50;3.40;;;;;;;3.76;72.36;98558.06;2618689;39;20426;-65
2022/01/08 12:31:44;;;;;;;9.65;4.70;;;;;;;3.63;72.71;98551.47;2618507;47;20042;-65
2022/01/08 12:34:42;;;;;;;8.73;3.90;;;;;;;3.64;72.41;98555.72;2618723;54;20038;-65
2022/01/08 12:37:15;;;;;;;9.13;4.45;;;;;;;3.65;72.69;98541.66;2618651;54;20286;-66
2022/01/08 12:39:58;;;;;;;10.30;5.03;;;;;;;3.64;72.55;98532.19;2618924;54;20038;-65
2022/01/08 12:42:47;;;;;;;17.50;7.20;;;;;;;3.63;72.19;98519.25;2618816;54;20546;-65
2022/01/08 12:45:32;;;;;;;25.73;10.98;;;;;;;3.68;72.13;98511.78;2618635;54;20034;-66
2022/01/08 12:48:10;;;;;;;9.60;4.63;;;;;;;3.80;72.29;98509.72;2618278;54;20038;-66
2022/01/08 12:50:41;;;;;;;13.82;4.88;;;;;;;3.77;72.36;98513.47;2618170;47;20077;-66
2022/01/08 12:53:16;;;;;;;12.48;10.68;;;;;;;3.81;71.88;98508.75;2618954;54;20042;-65
2022/01/08 12:56:08;;;;;;;7.88;4.93;;;;;;;3.83;71.94;98496.31;2618239;54;20031;-66
2022/01/08 12:58:49;;;;;;;7.30;4.43;;;;;;;3.87;72.26;98489.78;2618967;54;20041;-66
2022/01/08 13:01:22;;;;;;;6.47;3.25;;;;;;;3.91;72.00;98491.13;2618693;54;20042;-66
2022/01/08 13:03:54;;;;;;;5.13;3.70;;;;;;;3.92;72.09;98479.69;2618422;47;20023;-66
2022/01/08 13:06:29;;;;;;;10.02;5.00;;;;;;;3.93;71.80;98479.53;2618068;47;20038;-66
2022/01/08 13:09:00;;;;;;;9.68;4.18;;;;;;;3.98;71.97;98464.19;2619666;31;20497;-66
2022/01/08 13:11:32;;;;;;;16.35;7.65;;;;;;;4.04;71.83;98469.75;2620541;54;20061;-66
2022/01/08 13:14:07;;;;;;;9.63;3.85;;;;;;;4.02;71.25;98458.63;2625010;54;20037;-66
2022/01/08 13:16:38;;;;;;;;;;;;;;;3.86;71.15;98468.06;2624793;54;20026;-66
2022/01/08 13:19:11;;;;;;;5.63;2.95;;;;;;;3.85;71.72;98455.16;2624430;54;20454;-67
2022/01/08 13:21:42;;;;;;;7.43;3.47;;;;;;;3.88;72.13;98457.47;2624371;54;20026;-66
2022/01/08 13:24:17;;;;;;;4.30;2.90;;;;;;;3.90;71.80;98453.69;2624238;54;20038;-66
2022/01/08 13:26:51;;;;;;;13.60;5.10;;;;;;;3.89;71.94;98446.84;2624162;54;20569;-66
2022/01/08 13:29:28;;;;;;;;;;;;;;;3.89;72.33;98443.41;2624125;54;20023;-66
2022/01/08 13:32:00;;;;;;;9.35;4.00;;;;;;;3.87;72.19;98438.31;2619550;54;19973;-66
2022/01/08 13:34:34;;;;;;;9.23;3.80;;;;;;;3.89;71.75;98428.53;2618873;54;20034;-66
2022/01/08 13:37:07;;;;;;;7.72;3.47;;;;;;;3.91;71.97;98417.91;2618013;54;20039;-66
2022/01/08 13:39:41;;;;;;;11.05;4.22;;;;;;;3.99;72.00;98410.06;2618793;54;20034;-66
2022/01/08 13:42:14;;;;;;;8.70;3.60;;;;;;;4.05;72.21;98401.59;2618560;54;20038;-66
2022/01/08 13:44:47;;;;;;;10.18;3.72;;;;;;;4.01;71.66;98391.63;2618034;47;20022;-66
2022/01/08 13:47:26;;;;;;;8.05;3.13;;;;;;;3.97;71.73;98384.09;2617654;54;20057;-66
2022/01/08 13:49:58;;;;;;;9.05;4.38;;;;;;;3.99;72.07;98378.69;2618534;54;20030;-67
2022/01/08 13:55:17;;;;;;;4.63;2.72;;;;;;;4.02;71.74;98356.63;2618887;39;20449;-65
2022/01/08 13:57:51;;;;;;;24.88;3.75;;;;;;;3.92;71.51;98359.41;2618236;54;20030;-64
2022/01/08 14:00:30;;;;;;;11.82;3.47;;;;;;;3.96;71.93;98337.19;2617950;47;20022;-65
2022/01/08 14:03:00;;;;;;;10.95;2.72;;;;;;;3.94;71.84;98337.31;2619262;31;20529;-65
2022/01/08 14:05:31;;;;;;;7.22;3.35;;;;;;;3.88;71.85;98332.75;2618088;54;20153;-65
2022/01/08 14:08:09;;;;;;;6.43;3.10;;;;;;;3.90;71.78;98325.56;2618864;54;20034;-65
2022/01/08 14:10:41;;;;;;;5.80;3.53;;;;;;;3.92;71.48;98317.56;2622843;54;20052;-71
2022/01/08 14:13:13;;;;;;;7.38;2.22;;;;;;;3.83;71.80;98310.66;2625323;54;20054;-71
2022/01/08 14:15:53;;;;;;;5.55;2.85;;;;;;;3.89;71.84;98304.81;2625166;54;20041;-70
2022/01/08 14:18:27;;;;;;;3.67;1.80;;;;;;;3.94;71.87;98297.28;2625270;54;20045;-70
2022/01/08 14:20:58;;;;;;;4.60;2.38;;;;;;;4.06;71.88;98288.13;2624082;54;20042;-70
2022/01/08 14:23:30;;;;;;;7.90;3.83;;;;;;;4.05;72.03;98278.66;2623085;54;20138;-70
2022/01/08 14:26:13;;;;;;;5.13;2.22;;;;;;;4.13;72.41;98273.44;2624475;54;20042;-71
2022/01/08 14:28:44;;;;;;;12.45;6.00;;;;;;;4.22;72.12;98248.06;2622515;54;20042;-70
2022/01/08 14:31:19;;;;;;;7.35;3.75;;;;;;;4.23;71.51;98252.31;2622752;54;20125;-71
2022/01/08 14:34:06;;;;;;;7.15;3.97;;;;;;;4.30;71.98;98242.00;2621559;47;20037;-70
2022/01/08 14:36:48;;;;;;;7.57;4.40;;;;;;;4.30;71.50;98231.53;2621685;47;20038;-69
2022/01/08 14:39:37;;;;;;;7.55;3.17;;;;;;;4.30;71.13;98223.69;2622725;47;20565;-71
2022/01/08 14:42:08;;;;;;;7.13;3.20;;;;;;;4.28;71.71;98213.38;2622558;54;20030;-70
2022/01/08 14:44:39;;;;;;;6.00;2.85;;;;;;;4.34;71.05;98202.25;2623644;54;20034;-70
2022/01/08 14:47:14;;;;;;;5.75;2.95;;;;;;;4.34;71.42;98199.63;2624252;54;20031;-70
2022/01/08 14:49:43;;;;;;;8.45;4.47;;;;;;;4.32;71.57;98191.13;2623369;52;20030;-71
2022/01/08 14:52:13;;;;;;;7.03;3.83;;;;;;;4.29;71.76;98181.03;2623760;39;20518;-70
2022/01/08 14:54:43;;;;;;;4.85;2.53;;;;;;;4.24;71.10;98180.69;2622346;39;20508;-70
2022/01/08 14:57:13;;;;;;;11.65;7.03;;;;;;;4.23;71.26;98181.66;2619788;54;20023;-70